Bay View, New Zealand
Current Conditions -  °F | °C
As of 9:30 AM on Tuesday 25 Nov 2014 (Local Time) from NZWN Reporting Station
Overcast Overcast  
Wind Chill: 61°   Ceiling: 900
Heat Index: 61°   Visibility: 6mi
Dew Point: 57°   Wind: 25mph
Humidity: 88%   Direction: 360°N
Pressure: 29.88"   Gusts: NA
Location:  39.43°S, 176.87°E
Report Text: NZWN 242130Z AUTO 36022KT 9999 OVC009/// 16/14 Q1012 BECMGBKN020
Loading
Personal Weather Stations






























Interactive Weather Map New forecast layout! Learn more

10-Day Weather Forecast

Advertisements
Track Severe Weather on mobile